createdAt,value
2023-04-02T00:00:17.651Z,93759.00
2023-04-02T00:01:17.675Z,93759.00
2023-04-02T00:02:17.751Z,93761.00
2023-04-02T00:03:17.973Z,93761.00
2023-04-02T00:04:17.884Z,93763.00
2023-04-02T00:05:17.921Z,93761.00
2023-04-02T00:06:17.959Z,93759.00
2023-04-02T00:07:18.000Z,93761.00
2023-04-02T00:08:18.024Z,93761.00
2023-04-02T00:09:18.009Z,93763.00
2023-04-02T00:10:18.030Z,93761.00
2023-04-02T00:11:18.021Z,93763.00
2023-04-02T00:12:18.052Z,93765.00
2023-04-02T00:13:18.120Z,93763.00
2023-04-02T00:14:18.151Z,93763.00
2023-04-02T00:15:18.193Z,93761.00
2023-04-02T00:16:18.285Z,93759.00
2023-04-02T00:17:18.303Z,93759.00
2023-04-02T00:18:18.453Z,93759.00
2023-04-02T00:19:18.425Z,93759.00
2023-04-02T00:20:18.487Z,93757.00
2023-04-02T00:21:18.540Z,93753.00
2023-04-02T00:22:18.536Z,93755.00
2023-04-02T00:23:18.549Z,93755.00
2023-04-02T00:24:18.567Z,93757.00
2023-04-02T00:25:18.561Z,93755.00
2023-04-02T00:26:18.554Z,93755.00
2023-04-02T00:27:18.561Z,93755.00
2023-04-02T00:28:18.572Z,93753.00
2023-04-02T00:29:18.587Z,93753.00
2023-04-02T00:30:18.591Z,93755.00
2023-04-02T00:31:18.600Z,93757.00
2023-04-02T00:32:18.647Z,93759.00
2023-04-02T00:33:18.627Z,93759.00
2023-04-02T00:34:18.680Z,93759.00
2023-04-02T00:35:18.723Z,93759.00
2023-04-02T00:36:18.801Z,93761.00
2023-04-02T00:37:18.827Z,93761.00
2023-04-02T00:38:18.904Z,93759.00
2023-04-02T00:39:18.924Z,93759.00
2023-04-02T00:40:18.974Z,93761.00
2023-04-02T00:41:19.040Z,93763.00
2023-04-02T00:42:19.039Z,93761.00
2023-04-02T00:43:19.057Z,93761.00
2023-04-02T00:44:19.073Z,93761.00
2023-04-02T00:45:19.068Z,93763.00
2023-04-02T00:46:19.126Z,93761.00
2023-04-02T00:47:19.089Z,93765.00
2023-04-02T00:48:19.108Z,93765.00
2023-04-02T00:49:19.114Z,93765.00
2023-04-02T00:50:19.109Z,93765.00
2023-04-02T00:51:19.112Z,93767.00
2023-04-02T00:52:19.127Z,93767.00
2023-04-02T00:53:19.141Z,93767.00
2023-04-02T00:54:19.150Z,93769.00
2023-04-02T00:55:19.157Z,93769.00
2023-04-02T00:56:19.205Z,93769.00
2023-04-02T00:57:19.334Z,93769.00
2023-04-02T00:58:19.293Z,93771.00
2023-04-02T00:59:19.353Z,93771.00
2023-04-02T01:00:19.421Z,93769.00
2023-04-02T01:01:19.530Z,93769.00
2023-04-02T01:02:19.512Z,93769.00
2023-04-02T01:03:19.601Z,93769.00
2023-04-02T01:04:19.580Z,93769.00
2023-04-02T01:05:19.591Z,93769.00
2023-04-02T01:06:19.596Z,93765.00
2023-04-02T01:07:19.626Z,93763.00
2023-04-02T01:08:19.626Z,93769.00
2023-04-02T01:09:19.644Z,93767.00
2023-04-02T01:10:19.629Z,93765.00
2023-04-02T01:11:19.641Z,93767.00
2023-04-02T01:12:19.655Z,93771.00
2023-04-02T01:13:19.651Z,93773.00
2023-04-02T01:14:19.656Z,93771.00
2023-04-02T01:15:19.664Z,93773.00
2023-04-02T01:16:19.696Z,93771.00
2023-04-02T01:17:19.674Z,93773.00
2023-04-02T01:18:19.732Z,93771.00
2023-04-02T01:19:19.711Z,93773.00
2023-04-02T01:20:19.718Z,93775.00
2023-04-02T01:21:19.714Z,93773.00
2023-04-02T01:22:19.721Z,93773.00
2023-04-02T01:23:19.748Z,93773.00
2023-04-02T01:24:19.768Z,93771.00
2023-04-02T01:25:19.793Z,93773.00
2023-04-02T01:26:19.797Z,93773.00
2023-04-02T01:27:19.808Z,93771.00
2023-04-02T01:28:19.871Z,93773.00
2023-04-02T01:29:19.877Z,93771.00
2023-04-02T01:30:19.859Z,93771.00
2023-04-02T01:31:19.877Z,93771.00
2023-04-02T01:32:19.914Z,93771.00
2023-04-02T01:33:19.961Z,93773.00
2023-04-02T01:34:19.943Z,93771.00
2023-04-02T01:35:19.933Z,93767.00
2023-04-02T01:36:19.966Z,93769.00
2023-04-02T01:37:19.965Z,93771.00
2023-04-02T01:38:19.965Z,93775.00
2023-04-02T01:39:20.067Z,93775.00
2023-04-02T01:40:20.019Z,93785.00
2023-04-02T01:41:20.002Z,93787.00
2023-04-02T01:42:20.060Z,93787.00
2023-04-02T01:43:20.041Z,93787.00
2023-04-02T01:44:20.045Z,93788.00
2023-04-02T01:45:20.106Z,93787.00
2023-04-02T01:46:20.166Z,93788.00
2023-04-02T01:47:20.220Z,93790.00
2023-04-02T01:48:20.267Z,93788.00
2023-04-02T01:49:20.315Z,93790.00
2023-04-02T01:50:20.459Z,93792.00
2023-04-02T01:51:20.399Z,93794.00
2023-04-02T01:52:20.432Z,93796.00
2023-04-02T01:53:20.491Z,93798.00
2023-04-02T01:54:20.535Z,93800.00
2023-04-02T01:55:20.590Z,93798.00
2023-04-02T01:56:20.645Z,93800.00
2023-04-02T01:57:20.683Z,93800.00
2023-04-02T01:58:20.675Z,93804.00
2023-04-02T01:59:20.704Z,93806.00
2023-04-02T02:00:20.744Z,93806.00
2023-04-02T02:01:20.842Z,93806.00
2023-04-02T02:02:20.793Z,93810.00
2023-04-02T02:03:20.846Z,93810.00
2023-04-02T02:04:20.825Z,93812.00
2023-04-02T02:05:20.865Z,93812.00
2023-04-02T02:06:20.874Z,93814.00
2023-04-02T02:07:20.908Z,93816.00
2023-04-02T02:08:20.933Z,93816.00
2023-04-02T02:09:20.945Z,93818.00
2023-04-02T02:10:20.967Z,93816.00
2023-04-02T02:11:20.984Z,93820.00
2023-04-02T02:12:21.042Z,93820.00
2023-04-02T02:13:21.055Z,93820.00
2023-04-02T02:14:21.132Z,93820.00
2023-04-02T02:15:21.192Z,93818.00
2023-04-02T02:16:21.256Z,93818.00
2023-04-02T02:17:21.289Z,93822.00
2023-04-02T02:18:21.333Z,93820.00
2023-04-02T02:19:21.398Z,93822.00
2023-04-02T02:20:21.432Z,93820.00
2023-04-02T02:21:21.555Z,93820.00
2023-04-02T02:22:21.519Z,93822.00
2023-04-02T02:23:21.543Z,93818.00
2023-04-02T02:24:21.525Z,93820.00
2023-04-02T02:25:21.578Z,93822.00
2023-04-02T02:26:21.575Z,93822.00
2023-04-02T02:27:21.577Z,93824.00
2023-04-02T02:28:21.617Z,93824.00
2023-04-02T02:29:21.645Z,93826.00
2023-04-02T02:30:21.670Z,93824.00
2023-04-02T02:31:21.707Z,93826.00
2023-04-02T02:32:21.738Z,93824.00
2023-04-02T02:33:21.745Z,93826.00
2023-04-02T02:34:21.782Z,93824.00
2023-04-02T02:35:21.829Z,93828.00
2023-04-02T02:36:21.815Z,93832.00
2023-04-02T02:37:21.830Z,93828.00
2023-04-02T02:38:21.837Z,93832.00
2023-04-02T02:39:21.852Z,93832.00
2023-04-02T02:40:21.895Z,93832.00
2023-04-02T02:41:21.902Z,93832.00
2023-04-02T02:42:21.928Z,93832.00
2023-04-02T02:43:21.932Z,93832.00
2023-04-02T02:44:21.928Z,93838.00
2023-04-02T02:45:21.961Z,93832.00
2023-04-02T02:46:22.018Z,93834.00
2023-04-02T02:47:22.078Z,93834.00
2023-04-02T02:48:22.083Z,93836.00
2023-04-02T02:49:22.144Z,93832.00
2023-04-02T02:50:22.191Z,93834.00
2023-04-02T02:51:22.233Z,93834.00
2023-04-02T02:52:22.302Z,93836.00
2023-04-02T02:53:22.333Z,93834.00
2023-04-02T02:54:22.365Z,93832.00
2023-04-02T02:55:22.398Z,93830.00
2023-04-02T02:56:22.402Z,93832.00
2023-04-02T02:57:22.468Z,93828.00
2023-04-02T02:58:22.441Z,93830.00
2023-04-02T02:59:22.443Z,93830.00
2023-04-02T03:00:22.458Z,93830.00
2023-04-02T03:01:22.564Z,93832.00
2023-04-02T03:02:22.610Z,93830.00
2023-04-02T03:03:22.651Z,93832.00
2023-04-02T03:04:22.717Z,93832.00
2023-04-02T03:05:22.573Z,93834.00
2023-04-02T03:06:22.599Z,93836.00
2023-04-02T03:07:22.635Z,93842.00
2023-04-02T03:08:22.673Z,93845.00
2023-04-02T03:09:22.712Z,93849.00
2023-04-02T03:10:22.776Z,93851.00
2023-04-02T03:11:22.722Z,93855.00
2023-04-02T03:12:22.748Z,93857.00
2023-04-02T03:13:22.777Z,93859.00
2023-04-02T03:14:22.812Z,93861.00
2023-04-02T03:15:22.813Z,93861.00
2023-04-02T03:16:22.944Z,93865.00
2023-04-02T03:17:22.863Z,93861.00
2023-04-02T03:18:22.915Z,93865.00
2023-04-02T03:19:22.899Z,93865.00
2023-04-02T03:20:22.899Z,93865.00
2023-04-02T03:21:22.922Z,93875.00
2023-04-02T03:22:22.939Z,93873.00
2023-04-02T03:23:22.953Z,93875.00
2023-04-02T03:24:22.998Z,93875.00
2023-04-02T03:25:23.045Z,93877.00
2023-04-02T03:26:23.100Z,93875.00
2023-04-02T03:27:23.163Z,93873.00
2023-04-02T03:28:23.196Z,93873.00
2023-04-02T03:29:23.240Z,93873.00
2023-04-02T03:30:23.291Z,93873.00
2023-04-02T03:31:23.300Z,93873.00
2023-04-02T03:32:23.300Z,93875.00
2023-04-02T03:33:23.325Z,93875.00
2023-04-02T03:34:23.329Z,93875.00
2023-04-02T03:35:23.335Z,93879.00
2023-04-02T03:36:23.431Z,93879.00
2023-04-02T03:37:23.380Z,93882.00
2023-04-02T03:38:23.410Z,93882.00
2023-04-02T03:39:23.428Z,93884.00
2023-04-02T03:40:23.452Z,93884.00
2023-04-02T03:41:23.539Z,93888.00
2023-04-02T03:42:23.572Z,93886.00
2023-04-02T03:43:23.596Z,93888.00
2023-04-02T03:44:23.620Z,93888.00
2023-04-02T03:45:23.650Z,93890.00
2023-04-02T03:46:23.710Z,93890.00
2023-04-02T03:47:23.719Z,93894.00
2023-04-02T03:48:23.726Z,93896.00
2023-04-02T03:49:23.740Z,93894.00
2023-04-02T03:50:23.754Z,93898.00
2023-04-02T03:51:23.800Z,93902.00
2023-04-02T03:52:23.805Z,93900.00
2023-04-02T03:53:23.848Z,93904.00
2023-04-02T03:54:23.897Z,93906.00
2023-04-02T03:55:23.968Z,93908.00
2023-04-02T03:56:24.032Z,93910.00
2023-04-02T03:57:24.094Z,93910.00
2023-04-02T03:58:24.072Z,93910.00
2023-04-02T03:59:24.113Z,93912.00
2023-04-02T04:00:24.144Z,93912.00
2023-04-02T04:01:24.159Z,93912.00
2023-04-02T04:02:24.370Z,93914.00
2023-04-02T04:03:24.277Z,93914.00
2023-04-02T04:04:24.357Z,93918.00
2023-04-02T04:05:24.355Z,93918.00
2023-04-02T04:06:24.417Z,93914.00
2023-04-02T04:07:24.483Z,93916.00
2023-04-02T04:08:24.525Z,93914.00
2023-04-02T04:09:24.545Z,93914.00
2023-04-02T04:10:24.548Z,93912.00
2023-04-02T04:11:24.672Z,93912.00
2023-04-02T04:12:24.582Z,93914.00
2023-04-02T04:13:24.637Z,93914.00
2023-04-02T04:14:24.633Z,93912.00
2023-04-02T04:15:24.707Z,93914.00
2023-04-02T04:16:24.776Z,93916.00
2023-04-02T04:17:24.931Z,93916.00
2023-04-02T04:18:24.813Z,93918.00
2023-04-02T04:19:24.833Z,93920.00
2023-04-02T04:20:24.830Z,93920.00
2023-04-02T04:21:24.855Z,93918.00
2023-04-02T04:22:24.867Z,93922.00
2023-04-02T04:23:24.892Z,93922.00
2023-04-02T04:24:24.930Z,93922.00
2023-04-02T04:25:24.945Z,93922.00
2023-04-02T04:26:24.967Z,93924.00
2023-04-02T04:27:24.969Z,93924.00
2023-04-02T04:28:25.012Z,93922.00
2023-04-02T04:29:25.020Z,93922.00
2023-04-02T04:30:25.042Z,93926.00
2023-04-02T04:31:26.059Z,93929.00
2023-04-02T04:32:25.123Z,93931.00
2023-04-02T04:33:25.097Z,93931.00
2023-04-02T04:34:25.128Z,93935.00
2023-04-02T04:35:25.211Z,93937.00
2023-04-02T04:36:25.173Z,93939.00
2023-04-02T04:37:25.229Z,93939.00
2023-04-02T04:38:25.243Z,93941.00
2023-04-02T04:39:25.270Z,93941.00
2023-04-02T04:40:25.303Z,93943.00
2023-04-02T04:41:25.338Z,93945.00
2023-04-02T04:42:25.383Z,93947.00
2023-04-02T04:43:25.448Z,93949.00
2023-04-02T04:44:25.494Z,93951.00
2023-04-02T04:45:25.555Z,93953.00
2023-04-02T04:46:25.694Z,93957.00
2023-04-02T04:47:25.709Z,93953.00
2023-04-02T04:48:25.695Z,93959.00
2023-04-02T04:49:25.715Z,93957.00
2023-04-02T04:50:25.757Z,93957.00
2023-04-02T04:51:25.747Z,93959.00
2023-04-02T04:52:25.771Z,93959.00
2023-04-02T04:53:25.805Z,93959.00
2023-04-02T04:54:25.816Z,93961.00
2023-04-02T04:55:25.861Z,93961.00
2023-04-02T04:56:25.897Z,93961.00
2023-04-02T04:57:25.988Z,93965.00
2023-04-02T04:58:25.968Z,93967.00
2023-04-02T04:59:25.965Z,93971.00
2023-04-02T05:00:26.027Z,93975.00
2023-04-02T05:01:26.132Z,93975.00
2023-04-02T05:02:26.135Z,93979.00
2023-04-02T05:03:26.169Z,93979.00
2023-04-02T05:04:26.287Z,93977.00
2023-04-02T05:05:26.270Z,93979.00
2023-04-02T05:06:26.309Z,93981.00
2023-04-02T05:07:26.342Z,93981.00
2023-04-02T05:08:26.350Z,93981.00
2023-04-02T05:09:26.370Z,93981.00
2023-04-02T05:10:26.389Z,93981.00
2023-04-02T05:11:26.432Z,93982.00
2023-04-02T05:12:26.479Z,93982.00
2023-04-02T05:13:26.533Z,93984.00
2023-04-02T05:14:26.539Z,93986.00
2023-04-02T05:15:26.580Z,93984.00
2023-04-02T05:16:26.637Z,93986.00
2023-04-02T05:17:26.738Z,93986.00
2023-04-02T05:18:26.733Z,93986.00
2023-04-02T05:19:26.780Z,93984.00
2023-04-02T05:20:26.859Z,93988.00
2023-04-02T05:21:26.881Z,93986.00
2023-04-02T05:22:26.960Z,93988.00
2023-04-02T05:23:27.026Z,93988.00
2023-04-02T05:24:27.083Z,93988.00
2023-04-02T05:25:27.150Z,93988.00
2023-04-02T05:26:27.169Z,93988.00
2023-04-02T05:27:27.223Z,93988.00
2023-04-02T05:28:27.245Z,93988.00
2023-04-02T05:29:27.291Z,93988.00
2023-04-02T05:30:27.361Z,93988.00
2023-04-02T05:31:27.451Z,93992.00
2023-04-02T05:32:27.468Z,94000.00
2023-04-02T05:33:27.421Z,93998.00
2023-04-02T05:34:27.427Z,93996.00
2023-04-02T05:35:27.438Z,93998.00
2023-04-02T05:36:27.646Z,94000.00
2023-04-02T05:37:27.633Z,94000.00
2023-04-02T05:38:27.627Z,94002.00
2023-04-02T05:39:27.727Z,94000.00
2023-04-02T05:40:27.696Z,93998.00
2023-04-02T05:41:27.740Z,93998.00
2023-04-02T05:42:27.728Z,94002.00
2023-04-02T05:43:27.671Z,94000.00
2023-04-02T05:44:27.702Z,94000.00
2023-04-02T05:45:27.712Z,94000.00
2023-04-02T05:46:27.771Z,94000.00
2023-04-02T05:47:27.744Z,94004.00
2023-04-02T05:48:27.720Z,94004.00
2023-04-02T05:49:27.714Z,94006.00
2023-04-02T05:50:27.733Z,94006.00
2023-04-02T05:51:27.737Z,94004.00
2023-04-02T05:52:27.832Z,94006.00
2023-04-02T05:53:27.791Z,94006.00
2023-04-02T05:54:27.777Z,94008.00
2023-04-02T05:55:27.793Z,94008.00
2023-04-02T05:56:27.777Z,94008.00
2023-04-02T05:57:42.121Z,94008.00
2023-04-02T05:59:27.809Z,94010.00
2023-04-02T06:00:27.831Z,94010.00
2023-04-02T06:01:27.731Z,94014.00
2023-04-02T06:02:27.958Z,94012.00
2023-04-02T06:03:27.808Z,94014.00
2023-04-02T06:04:27.713Z,94014.00
2023-04-02T06:05:27.713Z,94018.00
2023-04-02T06:06:27.716Z,94020.00
2023-04-02T06:07:27.708Z,94024.00
2023-04-02T06:08:27.709Z,94028.00
2023-04-02T06:09:27.763Z,94028.00
2023-04-02T06:10:27.741Z,94029.00
2023-04-02T06:11:27.783Z,94031.00
2023-04-02T06:12:27.788Z,94031.00
2023-04-02T06:13:27.867Z,94031.00
2023-04-02T06:14:27.827Z,94035.00
2023-04-02T06:15:27.986Z,94035.00
2023-04-02T06:16:28.061Z,94039.00
2023-04-02T06:17:28.021Z,94037.00
2023-04-02T06:18:28.000Z,94035.00
2023-04-02T06:19:28.066Z,94037.00
2023-04-02T06:20:28.212Z,94039.00
2023-04-02T06:21:28.135Z,94039.00
2023-04-02T06:22:28.170Z,94041.00
2023-04-02T06:23:28.213Z,94045.00
2023-04-02T06:24:28.238Z,94041.00
2023-04-02T06:25:28.261Z,94043.00
2023-04-02T06:26:28.240Z,94041.00
2023-04-02T06:27:28.289Z,94041.00
2023-04-02T06:28:28.302Z,94041.00
2023-04-02T06:29:28.280Z,94043.00
2023-04-02T06:30:28.373Z,94043.00
2023-04-02T06:31:28.402Z,94043.00
2023-04-02T06:32:28.484Z,94043.00
2023-04-02T06:33:28.425Z,94047.00
2023-04-02T06:34:28.465Z,94045.00
2023-04-02T06:35:28.505Z,94045.00
2023-04-02T06:36:28.528Z,94049.00
2023-04-02T06:37:28.604Z,94049.00
2023-04-02T06:38:28.582Z,94051.00
2023-04-02T06:39:28.584Z,94051.00
2023-04-02T06:40:28.605Z,94053.00
2023-04-02T06:41:28.677Z,94053.00
2023-04-02T06:42:28.709Z,94055.00
2023-04-02T06:43:28.765Z,94053.00
2023-04-02T06:44:28.730Z,94053.00
2023-04-02T06:45:28.765Z,94055.00
2023-04-02T06:46:28.911Z,94053.00
2023-04-02T06:47:28.860Z,94055.00
2023-04-02T06:48:28.902Z,94055.00
2023-04-02T06:49:28.931Z,94055.00
2023-04-02T06:50:28.994Z,94059.00
2023-04-02T06:51:29.027Z,94063.00
2023-04-02T06:52:29.067Z,94067.00
2023-04-02T06:53:29.131Z,94065.00
2023-04-02T06:54:29.138Z,94063.00
2023-04-02T06:55:29.192Z,94069.00
2023-04-02T06:56:29.210Z,94067.00
2023-04-02T06:57:29.292Z,94073.00
2023-04-02T06:58:29.324Z,94069.00
2023-04-02T06:59:29.350Z,94061.00
2023-04-02T07:00:29.379Z,94065.00
2023-04-02T07:01:29.432Z,94065.00
2023-04-02T07:02:29.454Z,94063.00
2023-04-02T07:03:29.400Z,94061.00
2023-04-02T07:04:29.451Z,94061.00
2023-04-02T07:05:29.426Z,94065.00
2023-04-02T07:06:29.438Z,94061.00
2023-04-02T07:07:29.445Z,94059.00
2023-04-02T07:08:29.471Z,94061.00
2023-04-02T07:09:29.439Z,94061.00
2023-04-02T07:10:29.488Z,94063.00
2023-04-02T07:11:29.516Z,94063.00
2023-04-02T07:12:29.529Z,94061.00
2023-04-02T07:13:29.562Z,94061.00
2023-04-02T07:14:29.633Z,94059.00
2023-04-02T07:15:29.666Z,94055.00
2023-04-02T07:16:29.750Z,94051.00
2023-04-02T07:17:29.792Z,94053.00
2023-04-02T07:18:29.766Z,94053.00
2023-04-02T07:19:29.791Z,94053.00
2023-04-02T07:20:29.834Z,94055.00
2023-04-02T07:21:29.890Z,94055.00
2023-04-02T07:22:29.903Z,94053.00
2023-04-02T07:23:29.995Z,94051.00
2023-04-02T07:24:30.021Z,94053.00
2023-04-02T07:25:30.012Z,94049.00
2023-04-02T07:26:30.023Z,94047.00
2023-04-02T07:27:30.058Z,94049.00
2023-04-02T07:28:30.117Z,94045.00
2023-04-02T07:29:30.149Z,94045.00
2023-04-02T07:30:30.162Z,94049.00
2023-04-02T07:31:30.228Z,94049.00
2023-04-02T07:32:30.235Z,94051.00
2023-04-02T07:33:30.288Z,94049.00
2023-04-02T07:34:30.314Z,94047.00
2023-04-02T07:35:30.344Z,94047.00
2023-04-02T07:36:30.387Z,94051.00
2023-04-02T07:37:30.407Z,94049.00
2023-04-02T07:38:30.456Z,94047.00
2023-04-02T07:39:30.453Z,94047.00
2023-04-02T07:40:30.498Z,94051.00
2023-04-02T07:41:30.548Z,94051.00
2023-04-02T07:42:30.559Z,94051.00
2023-04-02T07:43:30.697Z,94055.00
2023-04-02T07:44:30.659Z,94059.00
2023-04-02T07:45:30.690Z,94059.00
2023-04-02T07:46:30.728Z,94057.00
2023-04-02T07:47:30.743Z,94059.00
2023-04-02T07:48:30.801Z,94065.00
2023-04-02T07:49:30.814Z,94059.00
2023-04-02T07:50:30.849Z,94065.00
2023-04-02T07:51:30.873Z,94061.00
2023-04-02T07:52:30.884Z,94061.00
2023-04-02T07:53:31.056Z,94065.00
2023-04-02T07:54:30.960Z,94065.00
2023-04-02T07:55:30.984Z,94065.00
2023-04-02T07:56:31.025Z,94067.00
2023-04-02T07:57:31.201Z,94063.00
2023-04-02T07:58:31.196Z,94067.00
2023-04-02T07:59:31.164Z,94061.00
2023-04-02T08:00:31.225Z,94067.00
2023-04-02T08:01:31.270Z,94065.00
2023-04-02T08:02:31.378Z,94065.00
2023-04-02T08:03:31.472Z,94063.00
2023-04-02T08:04:31.348Z,94063.00
2023-04-02T08:05:31.359Z,94063.00
2023-04-02T08:06:31.389Z,94063.00
2023-04-02T08:07:31.395Z,94063.00
2023-04-02T08:08:31.453Z,94059.00
2023-04-02T08:09:31.443Z,94059.00
2023-04-02T08:10:31.491Z,94059.00
2023-04-02T08:11:32.008Z,94059.00
2023-04-02T08:12:31.554Z,94059.00
2023-04-02T08:13:31.590Z,94061.00
2023-04-02T08:14:31.617Z,94059.00
2023-04-02T08:15:31.626Z,94063.00
2023-04-02T08:16:31.712Z,94065.00
2023-04-02T08:17:31.760Z,94061.00
2023-04-02T08:18:31.772Z,94061.00
2023-04-02T08:19:33.707Z,94063.00
2023-04-02T08:20:32.767Z,94061.00
2023-04-02T08:21:31.733Z,94057.00
2023-04-02T08:22:31.745Z,94059.00
2023-04-02T08:23:31.737Z,94059.00
2023-04-02T08:24:31.703Z,94055.00
2023-04-02T08:25:31.703Z,94057.00
2023-04-02T08:26:31.702Z,94057.00
2023-04-02T08:27:31.708Z,94053.00
2023-04-02T08:28:31.714Z,94055.00
2023-04-02T08:29:31.677Z,94053.00
2023-04-02T08:30:31.740Z,94051.00
2023-04-02T08:31:31.664Z,94049.00
2023-04-02T08:32:31.687Z,94053.00
2023-04-02T08:33:31.691Z,94055.00
2023-04-02T08:34:31.667Z,94053.00
2023-04-02T08:35:31.668Z,94051.00
2023-04-02T08:36:31.664Z,94051.00
2023-04-02T08:37:31.664Z,94047.00
2023-04-02T08:38:31.662Z,94049.00
2023-04-02T08:39:31.686Z,94047.00
2023-04-02T08:40:31.738Z,94051.00
2023-04-02T08:41:31.751Z,94053.00
2023-04-02T08:42:31.739Z,94049.00
2023-04-02T08:43:31.761Z,94047.00
2023-04-02T08:44:31.806Z,94047.00
2023-04-02T08:45:31.804Z,94041.00
2023-04-02T08:46:31.982Z,94041.00
2023-04-02T08:47:31.877Z,94043.00
2023-04-02T08:48:31.871Z,94041.00
2023-04-02T08:49:31.876Z,94041.00
2023-04-02T08:50:31.929Z,94039.00
2023-04-02T08:51:31.946Z,94041.00
2023-04-02T08:52:32.052Z,94039.00
2023-04-02T08:53:32.004Z,94043.00
2023-04-02T08:54:31.992Z,94037.00
2023-04-02T08:55:32.047Z,94039.00
2023-04-02T08:56:31.976Z,94041.00
2023-04-02T08:57:32.127Z,94039.00
2023-04-02T08:58:32.020Z,94041.00
2023-04-02T08:59:32.034Z,94039.00
2023-04-02T09:00:32.058Z,94035.00
2023-04-02T09:01:32.121Z,94037.00
2023-04-02T09:02:32.254Z,94035.00
2023-04-02T09:03:32.171Z,94039.00
2023-04-02T09:04:32.246Z,94037.00
2023-04-02T09:05:32.311Z,94039.00
2023-04-02T09:06:32.260Z,94039.00
2023-04-02T09:07:32.282Z,94043.00
2023-04-02T09:08:32.253Z,94037.00
2023-04-02T09:09:32.273Z,94041.00
2023-04-02T09:10:32.258Z,94041.00
2023-04-02T09:11:32.270Z,94041.00
2023-04-02T09:12:32.300Z,94045.00
2023-04-02T09:13:32.327Z,94049.00
2023-04-02T09:14:32.354Z,94045.00
2023-04-02T09:15:32.455Z,94045.00
2023-04-02T09:16:32.476Z,94049.00
2023-04-02T09:17:42.728Z,94045.00
2023-04-02T09:18:33.400Z,94047.00
2023-04-02T09:19:32.398Z,94045.00
2023-04-02T09:20:32.389Z,94051.00
2023-04-02T09:21:32.366Z,94051.00
2023-04-02T09:22:32.369Z,94047.00
2023-04-02T09:23:32.368Z,94049.00
2023-04-02T09:24:32.351Z,94047.00
2023-04-02T09:25:32.451Z,94047.00
2023-04-02T09:26:32.357Z,94045.00
2023-04-02T09:27:32.351Z,94045.00
2023-04-02T09:28:32.362Z,94047.00
2023-04-02T09:29:32.343Z,94043.00
2023-04-02T09:30:32.400Z,94047.00
2023-04-02T09:31:32.444Z,94051.00
2023-04-02T09:32:32.444Z,94049.00
2023-04-02T09:33:32.466Z,94049.00
2023-04-02T09:34:32.482Z,94051.00
2023-04-02T09:35:32.493Z,94053.00
2023-04-02T09:36:32.566Z,94051.00
2023-04-02T09:37:32.562Z,94053.00
2023-04-02T09:38:32.620Z,94055.00
2023-04-02T09:39:32.629Z,94055.00
2023-04-02T09:40:32.669Z,94055.00
2023-04-02T09:41:33.696Z,94057.00
2023-04-02T09:42:32.743Z,94055.00
2023-04-02T09:43:32.813Z,94053.00
2023-04-02T09:44:32.807Z,94055.00
2023-04-02T09:45:32.833Z,94053.00
2023-04-02T09:46:32.918Z,94055.00
2023-04-02T09:47:32.996Z,94055.00
2023-04-02T09:48:33.020Z,94051.00
2023-04-02T09:49:33.112Z,94053.00
2023-04-02T09:50:33.154Z,94055.00
2023-04-02T09:51:33.194Z,94057.00
2023-04-02T09:52:33.228Z,94055.00
2023-04-02T09:53:33.263Z,94057.00
2023-04-02T09:54:33.282Z,94055.00
2023-04-02T09:55:33.532Z,94053.00
2023-04-02T09:56:33.383Z,94057.00
2023-04-02T09:57:33.512Z,94057.00
2023-04-02T09:58:33.450Z,94053.00
2023-04-02T09:59:33.524Z,94055.00
2023-04-02T10:00:33.601Z,94055.00
2023-04-02T10:01:33.673Z,94059.00
2023-04-02T10:02:33.747Z,94059.00
2023-04-02T10:03:33.740Z,94059.00
2023-04-02T10:04:33.924Z,94061.00
2023-04-02T10:05:40.749Z,94057.00
2023-04-02T10:06:34.849Z,94057.00
2023-04-02T10:07:33.829Z,94059.00
2023-04-02T10:08:33.810Z,94063.00
2023-04-02T10:09:33.829Z,94059.00
2023-04-02T10:10:33.978Z,94059.00
2023-04-02T10:11:45.798Z,94059.00
2023-04-02T10:12:34.796Z,94055.00
2023-04-02T10:13:33.782Z,94057.00
2023-04-02T10:14:33.781Z,94057.00
2023-04-02T10:15:34.163Z,94057.00
2023-04-02T10:16:33.862Z,94057.00
2023-04-02T10:17:33.804Z,94059.00
2023-04-02T10:18:33.758Z,94057.00
2023-04-02T10:19:33.773Z,94055.00
2023-04-02T10:20:39.109Z,94057.00
2023-04-02T10:21:34.761Z,94057.00
2023-04-02T10:22:33.742Z,94057.00
2023-04-02T10:23:33.722Z,94055.00
2023-04-02T10:24:33.720Z,94057.00
2023-04-02T10:25:33.897Z,94057.00
2023-04-02T10:26:33.719Z,94057.00
2023-04-02T10:27:33.722Z,94055.00
2023-04-02T10:28:33.692Z,94055.00
2023-04-02T10:29:33.688Z,94057.00
2023-04-02T10:30:33.722Z,94053.00
2023-04-02T10:31:33.652Z,94055.00
2023-04-02T10:32:33.717Z,94055.00
2023-04-02T10:33:33.661Z,94057.00
2023-04-02T10:34:33.703Z,94057.00
2023-04-02T10:35:33.750Z,94053.00
2023-04-02T10:36:33.652Z,94053.00
2023-04-02T10:37:33.657Z,94051.00
2023-04-02T10:38:33.617Z,94051.00
2023-04-02T10:39:33.605Z,94051.00
2023-04-02T10:40:33.617Z,94057.00
2023-04-02T10:41:33.624Z,94051.00
2023-04-02T10:42:33.621Z,94053.00
2023-04-02T10:43:33.613Z,94053.00
2023-04-02T10:44:33.636Z,94053.00
2023-04-02T10:45:33.925Z,94053.00
2023-04-02T10:46:33.744Z,94051.00
2023-04-02T10:47:33.761Z,94055.00
2023-04-02T10:48:33.785Z,94055.00
2023-04-02T10:49:33.864Z,94059.00
2023-04-02T10:50:33.850Z,94057.00
2023-04-02T10:51:33.899Z,94061.00
2023-04-02T10:52:33.944Z,94059.00
2023-04-02T10:53:33.957Z,94063.00
2023-04-02T10:54:33.981Z,94063.00
2023-04-02T10:55:34.290Z,94065.00
2023-04-02T10:56:44.165Z,94065.00
2023-04-02T10:57:35.153Z,94067.00
2023-04-02T10:58:34.021Z,94067.00
2023-04-02T10:59:34.030Z,94067.00
2023-04-02T11:00:34.011Z,94067.00
2023-04-02T11:01:34.048Z,94067.00
2023-04-02T11:02:34.083Z,94069.00
2023-04-02T11:03:34.028Z,94071.00
2023-04-02T11:04:33.981Z,94076.00
2023-04-02T11:06:33.955Z,94073.00
2023-04-02T11:07:33.968Z,94075.00
2023-04-02T11:08:33.944Z,94073.00
2023-04-02T11:09:33.955Z,94071.00
2023-04-02T11:10:33.951Z,94073.00
2023-04-02T11:11:34.000Z,94073.00
2023-04-02T11:12:35.436Z,94069.00
2023-04-02T11:13:34.070Z,94069.00
2023-04-02T11:14:34.058Z,94067.00
2023-04-02T11:15:34.264Z,94071.00
2023-04-02T11:16:35.001Z,94067.00
2023-04-02T11:17:34.086Z,94071.00
2023-04-02T11:18:34.047Z,94073.00
2023-04-02T11:19:34.092Z,94073.00
2023-04-02T11:20:34.117Z,94073.00
2023-04-02T11:21:34.888Z,94075.00
2023-04-02T11:22:34.188Z,94075.00
2023-04-02T11:23:34.230Z,94076.00
2023-04-02T11:24:34.310Z,94073.00
2023-04-02T11:25:34.454Z,94076.00
2023-04-02T11:26:34.301Z,94076.00
2023-04-02T11:27:34.315Z,94078.00
2023-04-02T11:28:34.317Z,94076.00
2023-04-02T11:29:34.320Z,94078.00
2023-04-02T11:30:34.346Z,94078.00
2023-04-02T11:31:34.429Z,94082.00
2023-04-02T11:32:34.445Z,94086.00
2023-04-02T11:33:39.241Z,94090.00
2023-04-02T11:34:35.432Z,94090.00
2023-04-02T11:35:34.791Z,94092.00
2023-04-02T11:36:34.403Z,94094.00
2023-04-02T11:37:34.384Z,94096.00
2023-04-02T11:38:34.404Z,94100.00
2023-04-02T11:39:34.398Z,94102.00
2023-04-02T11:40:34.370Z,94098.00
2023-04-02T11:41:34.366Z,94100.00
2023-04-02T11:42:34.380Z,94102.00
2023-04-02T11:43:34.398Z,94102.00
2023-04-02T11:44:34.420Z,94106.00
2023-04-02T11:45:43.151Z,94110.00
2023-04-02T11:46:35.525Z,94110.00